Time;durP1;ratioP1;P1;durP2;ratioP2;P2;SDS_P1;SDS_P2;PMS_P1;PMS_P2;Temp;Humidity;BMP_temperature;BMP_pressure;BME280_temperature;BME280_humidity;BME280_pressure;Samples;Min_cycle;Max_cycle;Signal;HPM_P1;HPM_P2
2021/01/11 00:01:06;;;;;;;4.30;3.30;;;;;;;;;;4830514;29;20212;-94
2021/01/11 00:03:33;;;;;;;4.07;3.28;;;;;;;;;;4829611;29;20468;-94
2021/01/11 00:06:01;;;;;;;5.32;3.10;;;;;;;;;;4830419;29;20290;-93
2021/01/11 00:13:53;;;;;;;3.00;2.60;;;;;;;;;;4841847;24;20237;-92
2021/01/11 00:16:26;;;;;;;4.50;3.30;;;;;;;;;;4835329;29;20220;-95
2021/01/11 00:18:53;;;;;;;3.42;3.10;;;;;;;;;;4831792;29;20234;-94
2021/01/11 00:21:21;;;;;;;3.28;2.72;;;;;;;;;;4837783;29;20229;-94
2021/01/11 00:23:48;;;;;;;4.90;2.88;;;;;;;;;;4827884;29;20211;-95
2021/01/11 00:26:16;;;;;;;3.03;2.72;;;;;;;;;;4827074;29;20202;-94
2021/01/11 00:28:46;;;;;;;3.15;2.55;;;;;;;;;;4829873;29;20286;-94
2021/01/11 00:31:20;;;;;;;3.58;2.97;;;;;;;;;;4829777;29;20201;-95
2021/01/11 00:33:47;;;;;;;3.83;2.95;;;;;;;;;;4829625;29;20592;-94
2021/01/11 00:36:14;;;;;;;3.88;2.97;;;;;;;;;;4829204;29;20202;-95
2021/01/11 00:38:48;;;;;;;4.55;3.25;;;;;;;;;;4829339;29;20294;-94
2021/01/11 00:41:20;;;;;;;3.67;3.20;;;;;;;;;;4829642;29;20196;-94
2021/01/11 00:43:50;;;;;;;3.75;3.08;;;;;;;;;;4839994;29;20352;-93
2021/01/11 00:46:23;;;;;;;3.40;3.10;;;;;;;;;;4815736;29;20222;-95
2021/01/11 00:48:51;;;;;;;5.13;4.50;;;;;;;;;;4829550;29;20210;-93
2021/01/11 00:51:18;;;;;;;5.53;4.00;;;;;;;;;;4828539;29;20190;-95
2021/01/11 00:53:46;;;;;;;4.85;4.28;;;;;;;;;;4829175;29;20266;-95
2021/01/11 00:56:14;;;;;;;6.07;5.05;;;;;;;;;;4829333;29;20492;-94
2021/01/11 00:58:42;;;;;;;7.28;6.53;;;;;;;;;;4828435;29;20237;-93
2021/01/11 01:01:09;;;;;;;10.43;7.38;;;;;;;;;;4828907;29;20202;-94
2021/01/11 01:03:37;;;;;;;9.13;7.75;;;;;;;;;;4829044;29;20270;-94
2021/01/11 01:06:05;;;;;;;9.45;7.30;;;;;;;;;;4829047;29;20202;-94
2021/01/11 01:08:32;;;;;;;8.07;7.05;;;;;;;;;;4829011;29;20517;-95
2021/01/11 01:11:00;;;;;;;10.13;9.13;;;;;;;;;;4828861;29;20216;-95
2021/01/11 01:13:27;;;;;;;10.30;7.53;;;;;;;;;;4813794;29;20244;-94
2021/01/11 01:15:54;;;;;;;9.02;7.90;;;;;;;;;;4828938;29;20259;-94
2021/01/11 01:18:21;;;;;;;13.05;9.02;;;;;;;;;;4829659;29;20234;-94
2021/01/11 01:21:05;;;;;;;10.60;8.73;;;;;;;;;;4831896;29;20290;-93
2021/01/11 01:23:32;;;;;;;9.40;8.02;;;;;;;;;;4832615;29;20209;-94
2021/01/11 01:26:01;;;;;;;8.70;7.57;;;;;;;;;;4833108;29;20537;-94
2021/01/11 01:28:28;;;;;;;9.48;7.40;;;;;;;;;;4831843;29;20217;-94
2021/01/11 01:30:58;;;;;;;10.15;7.38;;;;;;;;;;4831540;29;20584;-94
2021/01/11 01:33:25;;;;;;;9.38;7.55;;;;;;;;;;4832868;29;20220;-94
2021/01/11 01:35:52;;;;;;;10.40;8.63;;;;;;;;;;4833021;29;20190;-94
2021/01/11 01:38:19;;;;;;;12.25;9.13;;;;;;;;;;4831985;29;20230;-92
2021/01/11 01:40:46;;;;;;;9.57;7.97;;;;;;;;;;4832114;29;20514;-94
2021/01/11 01:43:14;;;;;;;9.60;7.57;;;;;;;;;;4831665;29;20432;-94
2021/01/11 01:45:41;;;;;;;10.95;8.50;;;;;;;;;;4833467;29;20262;-96
2021/01/11 01:48:17;;;;;;;9.65;8.65;;;;;;;;;;4834463;29;20238;-94
2021/01/11 01:50:45;;;;;;;10.55;7.47;;;;;;;;;;4831680;29;20292;-93
2021/01/11 01:53:12;;;;;;;8.88;7.88;;;;;;;;;;4831769;29;20273;-94
2021/01/11 01:55:40;;;;;;;9.57;7.72;;;;;;;;;;4832241;29;20201;-95
2021/01/11 01:58:10;;;;;;;10.88;8.10;;;;;;;;;;4833414;29;20229;-95
2021/01/11 02:00:39;;;;;;;11.20;8.27;;;;;;;;;;4831938;29;20528;-93
2021/01/11 02:03:06;;;;;;;8.65;7.10;;;;;;;;;;4831441;29;20316;-95
2021/01/11 02:05:33;;;;;;;11.38;8.05;;;;;;;;;;4831575;29;20213;-94
2021/01/11 02:08:10;;;;;;;8.82;7.20;;;;;;;;;;4831983;29;20202;-94
2021/01/11 02:11:03;;;;;;;12.75;9.32;;;;;;;;;;4831889;29;20269;-94
2021/01/11 02:13:46;;;;;;;12.10;7.90;;;;;;;;;;4831037;29;20241;-93
2021/01/11 02:16:23;;;;;;;9.98;8.57;;;;;;;;;;4831144;29;20475;-93
2021/01/11 02:18:59;;;;;;;10.20;8.38;;;;;;;;;;4831000;29;20232;-94
2021/01/11 02:22:08;;;;;;;12.23;7.47;;;;;;;;;;4831343;29;20536;-94
2021/01/11 02:25:21;;;;;;;9.57;7.97;;;;;;;;;;4831350;29;20210;-94
2021/01/11 02:27:50;;;;;;;10.95;7.68;;;;;;;;;;4831444;29;20213;-94
2021/01/11 02:30:32;;;;;;;9.50;7.25;;;;;;;;;;4837008;29;20551;-95
2021/01/11 02:33:34;;;;;;;10.05;7.78;;;;;;;;;;4834501;29;20289;-95
2021/01/11 02:36:08;;;;;;;12.70;8.75;;;;;;;;;;4836502;29;20228;-95
2021/01/11 02:42:44;;;;;;;9.48;7.32;;;;;;;;;;4804038;30;20254;-95
2021/01/11 02:50:59;;;;;;;8.60;6.82;;;;;;;;;;4836577;27;20255;-94
2021/01/11 02:54:03;;;;;;;8.40;6.85;;;;;;;;;;4840016;29;20230;-94
2021/01/11 02:56:40;;;;;;;9.45;6.93;;;;;;;;;;4770967;30;20216;-95
2021/01/11 02:59:23;;;;;;;8.68;7.25;;;;;;;;;;4768677;30;20234;-95
2021/01/11 03:01:54;;;;;;;9.20;7.18;;;;;;;;;;4768521;30;20295;-95
2021/01/11 03:04:23;;;;;;;9.85;7.07;;;;;;;;;;4758427;30;20205;-94
2021/01/11 03:06:56;;;;;;;8.95;6.95;;;;;;;;;;4759447;30;20297;-93
2021/01/11 03:09:23;;;;;;;11.27;8.05;;;;;;;;;;4775223;30;20564;-93
2021/01/11 03:11:51;;;;;;;7.93;6.47;;;;;;;;;;4774570;30;20196;-93
2021/01/11 03:14:18;;;;;;;10.43;7.57;;;;;;;;;;4774479;30;20226;-93
2021/01/11 03:16:45;;;;;;;8.00;6.47;;;;;;;;;;4775585;30;20542;-94
2021/01/11 03:19:12;;;;;;;12.13;7.43;;;;;;;;;;4774650;30;20774;-92
2021/01/11 03:21:40;;;;;;;8.18;6.63;;;;;;;;;;4774756;30;20228;-93
2021/01/11 03:24:09;;;;;;;8.30;6.18;;;;;;;;;;4775749;30;20208;-93
2021/01/11 03:26:36;;;;;;;9.27;6.13;;;;;;;;;;4776887;30;20224;-94
2021/01/11 03:29:04;;;;;;;8.75;6.45;;;;;;;;;;4777697;30;20212;-93
2021/01/11 03:31:31;;;;;;;9.23;7.22;;;;;;;;;;4766895;30;20209;-92
2021/01/11 03:33:58;;;;;;;6.90;5.50;;;;;;;;;;4811750;29;20201;-93
2021/01/11 03:36:25;;;;;;;8.70;6.68;;;;;;;;;;4830080;29;20260;-93
2021/01/11 03:38:52;;;;;;;7.57;6.70;;;;;;;;;;4830087;29;20233;-93
2021/01/11 03:41:20;;;;;;;6.70;6.00;;;;;;;;;;4830225;29;20206;-93
2021/01/11 03:43:47;;;;;;;7.60;5.63;;;;;;;;;;4829790;29;20265;-94
2021/01/11 03:46:16;;;;;;;6.28;5.57;;;;;;;;;;4830172;29;20194;-94
2021/01/11 03:48:45;;;;;;;7.95;5.65;;;;;;;;;;4829924;29;20222;-94
2021/01/11 03:51:13;;;;;;;6.45;5.82;;;;;;;;;;4830156;29;20216;-94
2021/01/11 03:53:43;;;;;;;8.93;5.70;;;;;;;;;;4829807;29;20236;-95
2021/01/11 03:56:11;;;;;;;7.78;6.32;;;;;;;;;;4829860;29;20220;-95
2021/01/11 03:58:39;;;;;;;10.60;7.78;;;;;;;;;;4829676;29;20210;-94
2021/01/11 04:01:06;;;;;;;9.90;7.63;;;;;;;;;;4830639;29;20202;-93
2021/01/11 04:03:33;;;;;;;8.77;7.43;;;;;;;;;;4830883;29;20205;-95
2021/01/11 04:06:00;;;;;;;7.15;6.45;;;;;;;;;;4830157;29;20221;-94
2021/01/11 04:08:28;;;;;;;8.20;6.20;;;;;;;;;;4829815;29;20217;-95
2021/01/11 04:10:55;;;;;;;10.93;6.28;;;;;;;;;;4829348;29;20190;-94
2021/01/11 04:13:22;;;;;;;6.75;5.90;;;;;;;;;;4830437;29;20214;-93
2021/01/11 04:15:50;;;;;;;7.82;6.55;;;;;;;;;;4829532;29;20228;-94
2021/01/11 04:18:18;;;;;;;8.88;7.25;;;;;;;;;;4830205;29;20202;-95
2021/01/11 04:20:45;;;;;;;9.43;7.10;;;;;;;;;;4829892;29;20225;-95
2021/01/11 04:23:12;;;;;;;9.05;6.80;;;;;;;;;;4829295;29;20226;-94
2021/01/11 04:25:39;;;;;;;5.72;4.35;;;;;;;;;;4829649;29;20206;-94
2021/01/11 04:28:06;;;;;;;5.53;4.93;;;;;;;;;;4829578;29;20206;-94
2021/01/11 04:30:34;;;;;;;5.40;4.00;;;;;;;;;;4830140;29;20216;-93
2021/01/11 04:33:02;;;;;;;4.07;3.67;;;;;;;;;;4829529;29;20261;-93
2021/01/11 04:35:29;;;;;;;5.25;4.35;;;;;;;;;;4829965;29;20202;-93
2021/01/11 04:37:57;;;;;;;4.53;3.65;;;;;;;;;;4829339;29;20493;-94
2021/01/11 04:40:25;;;;;;;5.57;3.85;;;;;;;;;;4829792;29;20233;-93
2021/01/11 04:42:57;;;;;;;5.95;4.30;;;;;;;;;;4829451;29;20206;-93
2021/01/11 04:45:25;;;;;;;7.53;5.82;;;;;;;;;;4829477;29;20535;-94
2021/01/11 04:47:54;;;;;;;7.50;5.60;;;;;;;;;;4829958;29;20210;-95
2021/01/11 04:50:23;;;;;;;10.35;6.97;;;;;;;;;;4828906;29;20229;-94
2021/01/11 04:52:50;;;;;;;9.15;6.65;;;;;;;;;;4828879;29;20317;-93
2021/01/11 04:55:18;;;;;;;10.65;8.30;;;;;;;;;;4833008;29;20205;-94
2021/01/11 04:57:53;;;;;;;8.60;7.53;;;;;;;;;;4832691;29;20206;-94
2021/01/11 05:00:23;;;;;;;11.30;8.48;;;;;;;;;;4832690;29;20229;-94
2021/01/11 05:02:58;;;;;;;11.20;8.27;;;;;;;;;;4833135;29;20198;-94
2021/01/11 05:05:27;;;;;;;7.97;7.00;;;;;;;;;;4832472;29;20501;-94
2021/01/11 05:07:54;;;;;;;9.75;6.75;;;;;;;;;;4833017;29;20216;-93
2021/01/11 05:10:23;;;;;;;9.20;7.65;;;;;;;;;;4833211;29;20217;-93
2021/01/11 05:13:09;;;;;;;10.88;8.65;;;;;;;;;;4832782;29;20208;-95
2021/01/11 05:15:38;;;;;;;10.18;8.13;;;;;;;;;;4778097;30;20211;-94
2021/01/11 05:18:15;;;;;;;9.57;7.15;;;;;;;;;;4777858;30;20551;-92
2021/01/11 05:20:43;;;;;;;11.40;8.48;;;;;;;;;;4777695;30;20509;-95
2021/01/11 05:23:13;;;;;;;9.27;7.18;;;;;;;;;;4776785;30;20302;-94
2021/01/11 05:25:41;;;;;;;7.90;6.60;;;;;;;;;;4759345;30;20302;-94
2021/01/11 05:28:16;;;;;;;11.52;7.25;;;;;;;;;;4760430;30;20212;-94
2021/01/11 05:30:45;;;;;;;8.88;7.95;;;;;;;;;;4761147;30;20652;-94
2021/01/11 05:33:20;;;;;;;11.40;7.95;;;;;;;;;;4760797;30;20546;-95
2021/01/11 05:36:01;;;;;;;9.50;8.07;;;;;;;;;;4760067;30;20578;-94
2021/01/11 05:38:35;;;;;;;10.70;8.15;;;;;;;;;;4760838;30;20232;-94
2021/01/11 05:41:18;;;;;;;10.80;8.60;;;;;;;;;;4760117;30;20224;-96
2021/01/11 05:43:47;;;;;;;9.30;8.13;;;;;;;;;;4760548;30;20595;-94
2021/01/11 05:50:08;;;;;;;8.73;6.95;;;;;;;;;;5100935;24;20253;-96
2021/01/11 05:56:52;;;;;;;8.52;7.00;;;;;;;;;;4847362;29;20322;-95
2021/01/11 05:59:46;;;;;;;7.68;5.18;;;;;;;;;;5120809;24;20246;-95
2021/01/11 06:02:18;;;;;;;4.53;4.13;;;;;;;;;;4939056;24;20281;-95
2021/01/11 06:08:31;;;;;;;5.75;4.47;;;;;;;;;;4791467;30;20263;-95
2021/01/11 06:37:26;;;;;;;7.95;5.93;;;;;;;;;;4784093;27;20323;-94
2021/01/11 06:40:23;;;;;;;6.53;5.28;;;;;;;;;;4785779;30;20227;-94
2021/01/11 06:42:57;;;;;;;6.43;5.40;;;;;;;;;;4782736;30;20211;-94
2021/01/11 06:45:37;;;;;;;6.35;4.63;;;;;;;;;;4782549;30;20220;-94
2021/01/11 06:48:06;;;;;;;7.63;5.68;;;;;;;;;;4780558;30;20289;-94
2021/01/11 06:50:46;;;;;;;7.03;5.07;;;;;;;;;;4782973;30;20238;-94
2021/01/11 06:53:15;;;;;;;8.02;5.10;;;;;;;;;;4779552;30;20291;-93
2021/01/11 06:55:53;;;;;;;6.47;5.07;;;;;;;;;;4778476;30;20223;-96
2021/01/11 06:58:23;;;;;;;7.30;5.85;;;;;;;;;;4781009;30;20570;-95
2021/01/11 07:01:12;;;;;;;8.98;6.97;;;;;;;;;;4780218;30;20239;-96
2021/01/11 07:03:47;;;;;;;10.98;8.10;;;;;;;;;;4742153;30;20225;-94
2021/01/11 07:06:35;;;;;;;9.70;8.52;;;;;;;;;;4761416;30;20216;-94
2021/01/11 07:09:14;;;;;;;13.23;10.32;;;;;;;;;;4759425;30;20254;-93
2021/01/11 07:11:44;;;;;;;12.20;8.73;;;;;;;;;;4757734;30;20212;-94
2021/01/11 07:14:13;;;;;;;11.30;9.18;;;;;;;;;;4758658;30;20317;-92
2021/01/11 07:16:44;;;;;;;14.65;9.43;;;;;;;;;;4757080;30;20208;-93
2021/01/11 07:19:12;;;;;;;10.60;8.32;;;;;;;;;;4757901;30;20329;-94
2021/01/11 07:21:49;;;;;;;11.32;8.50;;;;;;;;;;4765611;30;20234;-94
2021/01/11 07:24:18;;;;;;;12.18;9.25;;;;;;;;;;4776844;30;20203;-95
2021/01/11 07:26:45;;;;;;;11.45;8.30;;;;;;;;;;4776219;30;20563;-94
2021/01/11 07:29:21;;;;;;;13.25;9.30;;;;;;;;;;4775865;30;20283;-93
2021/01/11 07:31:49;;;;;;;11.55;9.43;;;;;;;;;;4776411;30;20215;-93
2021/01/11 07:34:18;;;;;;;7.72;6.85;;;;;;;;;;4776659;30;20203;-92
2021/01/11 07:36:47;;;;;;;12.18;9.35;;;;;;;;;;4775433;30;20621;-95
2021/01/11 07:39:18;;;;;;;10.93;7.80;;;;;;;;;;4775732;30;20287;-93
2021/01/11 07:41:48;;;;;;;12.25;9.23;;;;;;;;;;4776940;30;20398;-93
2021/01/11 07:44:26;;;;;;;8.10;7.15;;;;;;;;;;4776695;30;20231;-93
2021/01/11 07:46:59;;;;;;;10.02;8.05;;;;;;;;;;4775939;30;20207;-93
2021/01/11 07:49:27;;;;;;;10.02;8.23;;;;;;;;;;4776303;30;20509;-94
2021/01/11 07:52:03;;;;;;;11.23;8.40;;;;;;;;;;4775816;30;20307;-94
2021/01/11 07:57:13;;;;;;;6.68;6.00;;;;;;;;;;4759162;30;20624;-93
2021/01/11 08:00:00;;;;;;;7.60;4.93;;;;;;;;;;4775451;30;20265;-93
2021/01/11 08:02:28;;;;;;;6.35;4.82;;;;;;;;;;4776602;30;20212;-93
2021/01/11 08:04:55;;;;;;;6.35;4.57;;;;;;;;;;4776098;30;20207;-94
2021/01/11 08:07:32;;;;;;;8.52;5.72;;;;;;;;;;4775491;30;20196;-93
2021/01/11 08:10:01;;;;;;;10.98;8.18;;;;;;;;;;4775932;30;20567;-92
2021/01/11 08:12:30;;;;;;;11.68;8.07;;;;;;;;;;4776703;30;20238;-94
2021/01/11 08:15:07;;;;;;;11.50;7.80;;;;;;;;;;4775834;30;20215;-93
2021/01/11 08:17:35;;;;;;;9.20;7.78;;;;;;;;;;4775559;30;20244;-93
2021/01/11 08:20:02;;;;;;;9.35;7.88;;;;;;;;;;4775748;30;20222;-93
2021/01/11 08:22:32;;;;;;;9.32;8.10;;;;;;;;;;4775475;30;20300;-93
2021/01/11 08:25:01;;;;;;;10.77;8.32;;;;;;;;;;4775747;30;20204;-92
2021/01/11 08:27:33;;;;;;;8.88;6.68;;;;;;;;;;4776039;30;20295;-94
2021/01/11 08:30:04;;;;;;;8.85;6.65;;;;;;;;;;4779042;30;20291;-94
2021/01/11 08:32:33;;;;;;;8.30;6.20;;;;;;;;;;4779744;30;20203;-93
2021/01/11 08:35:07;;;;;;;12.43;10.18;;;;;;;;;;4778796;30;20592;-95
2021/01/11 08:37:34;;;;;;;13.88;9.25;;;;;;;;;;4780272;30;20295;-93
2021/01/11 08:40:06;;;;;;;12.43;9.75;;;;;;;;;;4779835;30;20242;-93
2021/01/11 08:42:35;;;;;;;10.73;7.60;;;;;;;;;;4779058;30;20254;-94
2021/01/11 08:45:28;;;;;;;13.45;9.50;;;;;;;;;;4778720;30;20575;-94
2021/01/11 08:48:10;;;;;;;13.60;10.30;;;;;;;;;;4779009;30;20524;-94
2021/01/11 08:50:40;;;;;;;14.80;10.80;;;;;;;;;;4779879;30;20457;-94
2021/01/11 08:53:26;;;;;;;11.77;10.50;;;;;;;;;;5050582;24;20274;-93
2021/01/11 08:56:00;;;;;;;15.07;10.93;;;;;;;;;;4815163;29;20206;-95
2021/01/11 08:58:28;;;;;;;13.30;10.57;;;;;;;;;;4815321;29;20209;-94
2021/01/11 09:01:10;;;;;;;12.43;9.00;;;;;;;;;;4815089;29;20313;-92
2021/01/11 09:03:42;;;;;;;13.57;9.90;;;;;;;;;;4816202;29;20234;-93
2021/01/11 09:06:10;;;;;;;13.88;10.57;;;;;;;;;;4815928;29;20462;-93
2021/01/11 09:08:37;;;;;;;17.02;10.05;;;;;;;;;;4815779;29;20217;-95
2021/01/11 09:11:10;;;;;;;15.85;10.80;;;;;;;;;;4816401;29;20207;-93
2021/01/11 09:13:37;;;;;;;14.10;10.20;;;;;;;;;;4816405;29;20226;-93
2021/01/11 09:16:18;;;;;;;12.80;10.23;;;;;;;;;;4816367;29;20483;-94
2021/01/11 09:18:45;;;;;;;11.20;8.98;;;;;;;;;;4815169;29;20210;-94
2021/01/11 09:21:23;;;;;;;13.68;10.35;;;;;;;;;;4815201;29;20309;-94
2021/01/11 09:23:50;;;;;;;15.82;10.98;;;;;;;;;;4814908;29;20254;-93
2021/01/11 09:26:35;;;;;;;15.43;10.48;;;;;;;;;;4816285;29;20297;-95
2021/01/11 09:29:03;;;;;;;11.90;10.02;;;;;;;;;;4815114;29;20206;-93
2021/01/11 09:31:30;;;;;;;13.80;10.55;;;;;;;;;;4814425;29;20207;-92
2021/01/11 09:33:57;;;;;;;15.35;10.13;;;;;;;;;;4814541;29;20214;-92
2021/01/11 09:36:24;;;;;;;13.93;10.25;;;;;;;;;;4814332;29;20221;-94
2021/01/11 09:38:52;;;;;;;13.95;9.65;;;;;;;;;;4813825;29;20613;-94
2021/01/11 09:41:19;;;;;;;11.57;8.60;;;;;;;;;;4814340;29;20291;-92
2021/01/11 09:43:47;;;;;;;12.27;9.25;;;;;;;;;;4814157;29;20210;-92
2021/01/11 09:46:14;;;;;;;13.60;9.68;;;;;;;;;;4814553;29;20213;-93
2021/01/11 09:48:41;;;;;;;12.40;10.68;;;;;;;;;;4814501;29;20218;-93
2021/01/11 09:51:08;;;;;;;12.55;10.70;;;;;;;;;;4815020;29;20560;-93
2021/01/11 09:53:36;;;;;;;15.82;10.93;;;;;;;;;;4814638;29;20242;-93
2021/01/11 09:56:03;;;;;;;12.52;9.27;;;;;;;;;;4813806;29;20661;-94
2021/01/11 09:58:30;;;;;;;12.52;9.30;;;;;;;;;;4814600;29;20465;-93
2021/01/11 10:00:58;;;;;;;10.40;8.77;;;;;;;;;;4814625;29;20286;-93
2021/01/11 10:03:25;;;;;;;13.40;10.68;;;;;;;;;;4814897;29;20289;-93
2021/01/11 10:05:56;;;;;;;14.13;10.50;;;;;;;;;;4814315;29;20210;-93
2021/01/11 10:08:23;;;;;;;11.50;9.38;;;;;;;;;;4813992;29;20221;-92
2021/01/11 10:10:51;;;;;;;11.63;8.38;;;;;;;;;;4814122;29;20203;-93
2021/01/11 10:13:18;;;;;;;11.27;9.05;;;;;;;;;;4814209;29;20206;-93
2021/01/11 10:15:45;;;;;;;11.88;9.27;;;;;;;;;;4814498;29;20214;-92
2021/01/11 10:18:13;;;;;;;12.02;9.43;;;;;;;;;;4814363;29;20205;-93
2021/01/11 10:20:42;;;;;;;10.88;8.73;;;;;;;;;;4813170;29;20645;-92
2021/01/11 10:23:09;;;;;;;14.82;10.05;;;;;;;;;;4812824;29;20234;-94
2021/01/11 10:25:36;;;;;;;12.45;9.45;;;;;;;;;;4813456;29;20523;-92
2021/01/11 10:28:04;;;;;;;12.80;9.38;;;;;;;;;;4813342;29;20228;-91
2021/01/11 10:30:31;;;;;;;12.27;9.35;;;;;;;;;;4813205;29;20206;-93
2021/01/11 10:32:58;;;;;;;12.68;9.48;;;;;;;;;;4813223;29;20557;-92
2021/01/11 10:35:26;;;;;;;9.25;7.90;;;;;;;;;;4814025;29;20466;-92
2021/01/11 10:37:53;;;;;;;10.38;8.73;;;;;;;;;;4813676;29;20338;-93
2021/01/11 10:40:20;;;;;;;13.50;10.20;;;;;;;;;;4813272;29;20214;-92
2021/01/11 10:42:48;;;;;;;13.07;9.93;;;;;;;;;;4813311;29;20511;-92
2021/01/11 10:45:15;;;;;;;10.48;7.95;;;;;;;;;;4782109;29;20234;-93
2021/01/11 10:47:42;;;;;;;11.30;7.70;;;;;;;;;;4813342;29;20206;-93
2021/01/11 10:50:10;;;;;;;11.02;8.07;;;;;;;;;;4813329;29;20202;-94
2021/01/11 10:52:40;;;;;;;10.32;7.85;;;;;;;;;;4811856;29;20240;-93
2021/01/11 10:55:09;;;;;;;9.50;7.97;;;;;;;;;;4813105;29;20522;-93
2021/01/11 10:58:06;;;;;;;9.10;7.38;;;;;;;;;;4812906;29;20206;-95
2021/01/11 11:00:33;;;;;;;8.23;7.05;;;;;;;;;;4812775;29;20262;-94
2021/01/11 11:03:21;;;;;;;9.50;6.97;;;;;;;;;;4813122;29;20313;-94
2021/01/11 11:05:49;;;;;;;10.88;8.93;;;;;;;;;;4813089;29;20238;-94
2021/01/11 11:08:18;;;;;;;10.23;8.20;;;;;;;;;;4813329;29;20217;-94
2021/01/11 11:10:45;;;;;;;11.25;8.73;;;;;;;;;;4814716;29;20285;-94
2021/01/11 11:13:12;;;;;;;12.38;8.50;;;;;;;;;;4813403;29;20565;-93
2021/01/11 11:15:42;;;;;;;8.23;7.30;;;;;;;;;;4812891;29;20206;-94
2021/01/11 11:18:09;;;;;;;9.55;7.05;;;;;;;;;;4813186;29;20464;-93
2021/01/11 11:20:36;;;;;;;11.65;8.77;;;;;;;;;;4813113;29;20464;-93
2021/01/11 11:23:03;;;;;;;9.93;8.55;;;;;;;;;;4813210;29;20226;-92
2021/01/11 11:25:31;;;;;;;13.45;9.95;;;;;;;;;;4813833;29;20187;-94
2021/01/11 11:27:58;;;;;;;11.18;8.73;;;;;;;;;;4817924;29;20201;-93
2021/01/11 11:30:25;;;;;;;13.40;8.98;;;;;;;;;;4830366;29;20247;-93
2021/01/11 11:32:53;;;;;;;11.77;8.65;;;;;;;;;;4830411;29;20211;-93
2021/01/11 11:35:21;;;;;;;11.50;9.48;;;;;;;;;;4830387;29;20274;-92
2021/01/11 11:37:50;;;;;;;11.85;8.70;;;;;;;;;;4829162;29;20203;-93
2021/01/11 11:40:19;;;;;;;12.98;9.93;;;;;;;;;;4815184;29;20215;-92
2021/01/11 11:42:47;;;;;;;11.75;8.13;;;;;;;;;;4811913;29;20222;-94
2021/01/11 11:45:16;;;;;;;10.15;7.60;;;;;;;;;;4812877;29;20206;-93
2021/01/11 11:47:44;;;;;;;14.00;8.98;;;;;;;;;;4812512;29;20225;-93
2021/01/11 11:50:13;;;;;;;12.25;8.52;;;;;;;;;;4816269;29;20202;-95
2021/01/11 11:52:40;;;;;;;10.57;8.68;;;;;;;;;;4812339;29;20250;-93
2021/01/11 11:55:10;;;;;;;10.35;8.25;;;;;;;;;;4812124;29;20203;-94
2021/01/11 11:57:40;;;;;;;8.25;7.15;;;;;;;;;;4811779;29;20214;-94
2021/01/11 12:00:09;;;;;;;10.10;8.50;;;;;;;;;;4812039;29;20210;-94
2021/01/11 12:02:39;;;;;;;9.85;7.57;;;;;;;;;;4811463;29;20283;-94
2021/01/11 12:05:11;;;;;;;11.02;8.48;;;;;;;;;;4811640;29;20539;-93
2021/01/11 12:07:38;;;;;;;11.05;9.15;;;;;;;;;;4812308;29;20203;-94
2021/01/11 12:10:08;;;;;;;13.15;9.93;;;;;;;;;;4812271;29;20214;-93
2021/01/11 12:13:19;;;;;;;11.82;8.35;;;;;;;;;;4810742;29;20298;-94
2021/01/11 12:15:47;;;;;;;10.10;8.10;;;;;;;;;;4799819;29;20222;-93
2021/01/11 12:18:14;;;;;;;10.95;9.05;;;;;;;;;;4812309;29;20301;-94
2021/01/11 12:20:54;;;;;;;10.32;7.90;;;;;;;;;;4811364;29;20212;-93
2021/01/11 12:23:27;;;;;;;9.48;8.20;;;;;;;;;;4828694;29;20239;-95
2021/01/11 12:25:59;;;;;;;9.90;8.07;;;;;;;;;;4828996;29;20214;-95
2021/01/11 12:28:27;;;;;;;9.30;7.43;;;;;;;;;;4828162;29;20452;-94
2021/01/11 12:30:55;;;;;;;10.85;7.97;;;;;;;;;;4831199;29;20205;-93
2021/01/11 12:33:22;;;;;;;13.00;9.27;;;;;;;;;;4830095;29;20293;-94
2021/01/11 12:35:49;;;;;;;11.07;8.52;;;;;;;;;;4829704;29;20186;-94
2021/01/11 12:38:16;;;;;;;10.63;8.75;;;;;;;;;;4829565;29;20209;-92
2021/01/11 12:40:43;;;;;;;12.02;9.75;;;;;;;;;;4830705;29;20202;-91
2021/01/11 12:43:10;;;;;;;8.60;7.65;;;;;;;;;;4829443;29;20256;-91
2021/01/11 12:45:37;;;;;;;9.90;7.80;;;;;;;;;;4829384;29;20212;-92
2021/01/11 12:48:06;;;;;;;9.55;6.93;;;;;;;;;;4829709;29;20189;-91
2021/01/11 12:50:33;;;;;;;9.25;7.93;;;;;;;;;;4828355;29;20473;-93
2021/01/11 12:53:00;;;;;;;9.60;7.55;;;;;;;;;;4829020;29;20237;-91
2021/01/11 12:55:30;;;;;;;11.55;8.15;;;;;;;;;;4829115;29;20202;-92
2021/01/11 12:57:58;;;;;;;9.90;6.88;;;;;;;;;;4824959;29;20561;-93
2021/01/11 13:00:29;;;;;;;10.77;8.27;;;;;;;;;;4810901;29;20483;-91
2021/01/11 13:02:56;;;;;;;7.72;6.57;;;;;;;;;;4810990;29;20211;-93
2021/01/11 13:05:24;;;;;;;8.82;6.65;;;;;;;;;;4810820;29;20210;-90
2021/01/11 13:07:51;;;;;;;8.43;7.10;;;;;;;;;;4810946;29;20182;-90
2021/01/11 13:10:18;;;;;;;10.77;7.93;;;;;;;;;;4810762;29;20201;-91
2021/01/11 13:12:45;;;;;;;9.60;6.57;;;;;;;;;;4810608;29;20210;-90
2021/01/11 13:15:18;;;;;;;10.80;8.27;;;;;;;;;;4813353;29;20217;-91
2021/01/11 13:17:45;;;;;;;14.27;8.05;;;;;;;;;;4814215;29;20203;-90
2021/01/11 13:20:13;;;;;;;10.38;7.53;;;;;;;;;;4814024;29;20498;-91
2021/01/11 13:22:41;;;;;;;9.55;7.15;;;;;;;;;;4814057;29;20254;-91
2021/01/11 13:25:10;;;;;;;7.53;6.55;;;;;;;;;;4813939;29;20206;-90
2021/01/11 13:27:37;;;;;;;8.45;6.50;;;;;;;;;;4813636;29;20270;-89
2021/01/11 13:30:05;;;;;;;7.80;6.28;;;;;;;;;;4814401;29;20265;-91
2021/01/11 13:32:32;;;;;;;12.73;7.68;;;;;;;;;;4814983;29;20198;-91
2021/01/11 13:34:59;;;;;;;10.75;7.15;;;;;;;;;;4814294;29;20202;-90
2021/01/11 13:37:26;;;;;;;7.85;6.38;;;;;;;;;;4814302;29;20202;-93
2021/01/11 13:39:54;;;;;;;10.20;6.82;;;;;;;;;;4813464;29;20214;-91
2021/01/11 13:42:21;;;;;;;12.25;8.02;;;;;;;;;;4813588;29;20207;-90
2021/01/11 13:44:48;;;;;;;11.63;8.48;;;;;;;;;;4813669;29;20194;-89
2021/01/11 13:47:15;;;;;;;10.32;7.95;;;;;;;;;;4813858;29;20209;-89
2021/01/11 13:49:41;;;;;;;9.80;8.43;;;;;;;;;;4813692;29;20471;-89
2021/01/11 13:52:09;;;;;;;7.93;7.13;;;;;;;;;;4813964;29;20624;-90
2021/01/11 13:54:38;;;;;;;9.88;7.25;;;;;;;;;;4813238;29;20234;-93
2021/01/11 13:57:06;;;;;;;7.82;5.78;;;;;;;;;;4813480;29;20489;-90
2021/01/11 13:59:33;;;;;;;10.82;7.55;;;;;;;;;;4813743;29;20215;-91
2021/01/11 14:02:00;;;;;;;7.68;6.28;;;;;;;;;;4813244;29;20281;-91
2021/01/11 14:04:27;;;;;;;7.28;5.43;;;;;;;;;;4813835;29;20250;-91
2021/01/11 14:06:54;;;;;;;9.82;6.72;;;;;;;;;;4813295;29;20638;-92
2021/01/11 14:09:21;;;;;;;7.25;5.82;;;;;;;;;;4813273;29;20191;-90
2021/01/11 14:11:48;;;;;;;6.70;6.00;;;;;;;;;;4812883;29;20579;-90
2021/01/11 14:14:17;;;;;;;8.77;6.63;;;;;;;;;;4813051;29;20191;-90
2021/01/11 14:16:44;;;;;;;11.07;7.78;;;;;;;;;;4813666;29;20279;-90
2021/01/11 14:19:11;;;;;;;10.55;7.18;;;;;;;;;;4812895;29;20274;-91
2021/01/11 14:21:38;;;;;;;9.88;7.35;;;;;;;;;;4812918;29;20472;-94
2021/01/11 14:24:07;;;;;;;7.60;5.82;;;;;;;;;;4812925;29;20287;-92
2021/01/11 14:26:35;;;;;;;9.98;6.70;;;;;;;;;;4812074;29;20222;-93
2021/01/11 14:29:03;;;;;;;8.65;7.05;;;;;;;;;;4812517;29;20577;-92
2021/01/11 14:31:31;;;;;;;7.70;6.13;;;;;;;;;;4812796;29;20191;-92
2021/01/11 14:33:58;;;;;;;9.52;7.10;;;;;;;;;;4812895;29;20268;-93
2021/01/11 14:36:27;;;;;;;7.53;5.80;;;;;;;;;;4814919;29;20221;-94
2021/01/11 14:38:55;;;;;;;7.63;5.93;;;;;;;;;;4830742;29;20214;-89
2021/01/11 14:41:23;;;;;;;8.57;7.28;;;;;;;;;;4830950;29;20187;-89
2021/01/11 14:43:50;;;;;;;8.15;6.68;;;;;;;;;;4830863;29;20304;-90
2021/01/11 14:46:21;;;;;;;9.60;8.15;;;;;;;;;;4831472;29;20202;-90
2021/01/11 14:48:49;;;;;;;8.98;7.00;;;;;;;;;;4831335;29;20225;-89
2021/01/11 14:51:16;;;;;;;10.70;8.32;;;;;;;;;;4830538;29;20190;-90
2021/01/11 14:56:25;;;;;;;11.75;9.07;;;;;;;;;;4815710;29;20225;-92
2021/01/11 14:58:52;;;;;;;11.18;8.73;;;;;;;;;;4813147;29;20207;-94
2021/01/11 15:01:21;;;;;;;10.55;7.80;;;;;;;;;;4794350;30;20551;-93
2021/01/11 15:04:08;;;;;;;10.65;8.20;;;;;;;;;;4810623;29;20621;-94
2021/01/11 15:06:40;;;;;;;11.07;8.35;;;;;;;;;;4794426;30;20536;-92
2021/01/11 15:09:07;;;;;;;14.23;9.45;;;;;;;;;;4810384;29;20603;-93
2021/01/11 15:11:34;;;;;;;13.00;9.15;;;;;;;;;;4812259;29;20229;-93
2021/01/11 15:14:09;;;;;;;12.52;9.43;;;;;;;;;;4793727;30;20195;-95
2021/01/11 15:16:36;;;;;;;10.48;9.02;;;;;;;;;;4810742;29;20572;-93
2021/01/11 15:19:03;;;;;;;13.18;10.02;;;;;;;;;;4811891;29;20542;-90
2021/01/11 15:21:30;;;;;;;11.02;8.73;;;;;;;;;;4812037;29;20277;-89
2021/01/11 15:23:58;;;;;;;13.57;9.55;;;;;;;;;;4811519;29;20236;-90
2021/01/11 15:26:25;;;;;;;13.60;9.98;;;;;;;;;;4813240;29;20275;-91
2021/01/11 15:28:51;;;;;;;13.57;9.20;;;;;;;;;;4817117;29;20191;-92
2021/01/11 15:31:23;;;;;;;11.45;10.00;;;;;;;;;;4811769;29;20191;-89
2021/01/11 15:33:50;;;;;;;12.20;9.50;;;;;;;;;;4812284;29;20199;-90
2021/01/11 15:36:25;;;;;;;14.32;10.20;;;;;;;;;;4811602;29;20190;-89
2021/01/11 15:38:54;;;;;;;13.10;9.88;;;;;;;;;;4811620;29;20210;-90
2021/01/11 15:41:22;;;;;;;11.45;9.23;;;;;;;;;;4812140;29;20272;-90
2021/01/11 15:43:50;;;;;;;13.27;10.60;;;;;;;;;;4812055;29;20584;-89
2021/01/11 15:46:21;;;;;;;14.43;10.13;;;;;;;;;;4812335;29;20211;-90
2021/01/11 15:48:48;;;;;;;13.65;9.45;;;;;;;;;;4811673;29;20190;-89
2021/01/11 15:51:24;;;;;;;14.05;9.75;;;;;;;;;;4811382;29;20251;-88
2021/01/11 15:53:51;;;;;;;10.27;9.20;;;;;;;;;;4811029;29;20254;-89